createdAt,value
2022-09-03T00:02:21.771Z,15.88
2022-09-03T00:05:02.170Z,15.83
2022-09-03T00:07:41.251Z,15.80
2022-09-03T00:10:17.299Z,15.77
2022-09-03T00:12:52.754Z,15.75
2022-09-03T00:15:25.793Z,15.75
2022-09-03T00:18:03.648Z,15.75
2022-09-03T00:20:40.017Z,15.76
2022-09-03T00:23:17.555Z,15.76
2022-09-03T00:25:57.256Z,15.76
2022-09-03T00:28:35.772Z,15.77
2022-09-03T00:31:18.513Z,15.76
2022-09-03T00:33:53.927Z,15.77
2022-09-03T00:36:32.585Z,15.77
2022-09-03T00:39:05.563Z,15.77
2022-09-03T00:41:42.063Z,15.76
2022-09-03T00:44:38.025Z,15.76
2022-09-03T00:47:18.822Z,15.78
2022-09-03T00:50:01.396Z,15.78
2022-09-03T00:52:46.082Z,15.78
2022-09-03T00:55:28.496Z,15.77
2022-09-03T00:58:18.475Z,15.76
2022-09-03T01:00:53.793Z,15.76
2022-09-03T01:03:41.527Z,15.64
2022-09-03T01:06:21.308Z,15.76
2022-09-03T01:09:10.413Z,15.79
2022-09-03T01:11:59.551Z,15.79
2022-09-03T01:14:44.699Z,15.79
2022-09-03T01:17:29.807Z,15.78
2022-09-03T01:20:14.987Z,15.78
2022-09-03T01:23:26.101Z,15.79
2022-09-03T01:26:11.974Z,15.77
2022-09-03T01:28:57.512Z,15.79
2022-09-03T01:31:36.586Z,15.78
2022-09-03T01:34:18.380Z,15.78
2022-09-03T01:36:59.895Z,15.78
2022-09-03T01:39:46.122Z,15.78
2022-09-03T01:42:27.025Z,15.78
2022-09-03T01:45:22.648Z,15.77
2022-09-03T01:47:58.200Z,15.76
2022-09-03T01:50:40.581Z,15.73
2022-09-03T01:53:33.343Z,15.72
2022-09-03T01:56:19.005Z,15.74
2022-09-03T01:58:57.392Z,15.75
2022-09-03T02:01:35.139Z,15.67
2022-09-03T02:04:18.582Z,15.77
2022-09-03T02:06:51.488Z,15.77
2022-09-03T02:09:24.341Z,15.73
2022-09-03T02:12:09.613Z,15.67
2022-09-03T02:14:42.014Z,15.72
2022-09-03T02:17:14.928Z,15.74
2022-09-03T02:19:47.713Z,15.74
2022-09-03T02:22:20.685Z,15.74
2022-09-03T02:24:54.086Z,15.74
2022-09-03T02:27:26.579Z,15.72
2022-09-03T02:29:59.666Z,15.72
2022-09-03T02:32:32.180Z,15.74
2022-09-03T02:35:04.549Z,15.72
2022-09-03T02:37:37.176Z,15.74
2022-09-03T02:40:11.181Z,15.76
2022-09-03T02:42:43.373Z,15.77
2022-09-03T02:45:25.655Z,15.75
2022-09-03T02:48:00.902Z,15.76
2022-09-03T02:50:32.895Z,15.75
2022-09-03T02:53:04.966Z,15.73
2022-09-03T02:55:37.436Z,15.73
2022-09-03T02:58:09.736Z,15.72
2022-09-03T03:00:42.249Z,15.62
2022-09-03T03:03:14.489Z,15.70
2022-09-03T03:05:49.992Z,15.64
2022-09-03T03:08:25.229Z,15.67
2022-09-03T03:11:00.820Z,15.64
2022-09-03T03:13:34.384Z,15.62
2022-09-03T03:16:07.756Z,15.62
2022-09-03T03:18:40.126Z,15.63
2022-09-03T03:21:13.995Z,15.63
2022-09-03T03:23:46.812Z,15.63
2022-09-03T03:26:20.521Z,15.61
2022-09-03T03:28:59.448Z,15.60
2022-09-03T03:31:31.723Z,15.60
2022-09-03T03:34:04.966Z,15.52
2022-09-03T03:36:37.803Z,15.50
2022-09-03T03:39:11.395Z,15.50
2022-09-03T03:41:43.505Z,15.50
2022-09-03T03:44:17.667Z,15.52
2022-09-03T03:46:50.142Z,15.47
2022-09-03T03:49:23.264Z,15.50
2022-09-03T03:51:55.326Z,15.51
2022-09-03T03:54:27.476Z,15.48
2022-09-03T03:56:59.832Z,15.43
2022-09-03T03:59:32.248Z,15.42
2022-09-03T04:02:04.582Z,15.35
2022-09-03T04:04:37.027Z,15.44
2022-09-03T04:07:09.533Z,15.44
2022-09-03T04:09:41.785Z,15.43
2022-09-03T04:12:14.767Z,15.34
2022-09-03T04:14:46.877Z,15.44
2022-09-03T04:17:24.559Z,15.41
2022-09-03T04:19:57.177Z,15.24
2022-09-03T04:22:30.985Z,15.36
2022-09-03T04:25:03.125Z,15.35
2022-09-03T04:27:35.584Z,15.34
2022-09-03T04:30:09.315Z,15.33
2022-09-03T04:32:57.053Z,15.35
2022-09-03T04:35:31.831Z,15.35
2022-09-03T04:38:04.889Z,15.37
2022-09-03T04:40:37.614Z,15.36
2022-09-03T04:43:09.940Z,15.37
2022-09-03T04:45:42.082Z,15.38
2022-09-03T04:48:17.103Z,15.37
2022-09-03T04:50:49.231Z,15.36
2022-09-03T04:53:22.575Z,15.34
2022-09-03T04:55:54.967Z,15.32
2022-09-03T04:58:27.033Z,15.30
2022-09-03T05:01:00.242Z,15.30
2022-09-03T05:03:32.956Z,15.35
2022-09-03T05:06:06.450Z,15.36
2022-09-03T05:08:40.541Z,15.37
2022-09-03T05:11:13.206Z,15.40
2022-09-03T05:13:48.566Z,15.39
2022-09-03T05:16:21.912Z,15.39
2022-09-03T05:18:56.966Z,15.48
2022-09-03T05:21:30.139Z,15.47
2022-09-03T05:24:03.427Z,15.44
2022-09-03T05:26:38.685Z,15.44
2022-09-03T05:29:11.036Z,15.39
2022-09-03T05:31:43.530Z,15.50
2022-09-03T05:34:16.709Z,15.51
2022-09-03T05:36:53.214Z,15.53
2022-09-03T05:39:25.825Z,15.48
2022-09-03T05:41:58.474Z,15.54
2022-09-03T05:44:31.717Z,15.59
2022-09-03T05:47:04.129Z,15.58
2022-09-03T05:49:37.135Z,15.64
2022-09-03T05:52:10.188Z,15.61
2022-09-03T05:54:42.604Z,15.62
2022-09-03T05:57:15.591Z,15.66
2022-09-03T05:59:48.982Z,15.74
2022-09-03T06:02:21.035Z,15.78
2022-09-03T06:04:53.232Z,15.80
2022-09-03T06:07:26.394Z,15.79
2022-09-03T06:09:58.978Z,15.82
2022-09-03T06:12:31.193Z,15.85
2022-09-03T06:15:03.288Z,15.86
2022-09-03T06:17:35.414Z,15.92
2022-09-03T06:20:09.572Z,15.96
2022-09-03T06:22:42.162Z,15.97
2022-09-03T06:25:15.429Z,16.04
2022-09-03T06:27:47.907Z,16.10
2022-09-03T06:30:20.743Z,16.14
2022-09-03T06:32:53.294Z,16.20
2022-09-03T06:35:25.373Z,16.18
2022-09-03T06:37:59.938Z,16.23
2022-09-03T06:40:32.242Z,16.33
2022-09-03T06:43:04.429Z,16.32
2022-09-03T06:45:36.654Z,16.39
2022-09-03T06:48:09.070Z,16.49
2022-09-03T06:50:41.088Z,16.56
2022-09-03T06:53:13.371Z,16.64
2022-09-03T06:55:45.676Z,16.67
2022-09-03T06:58:18.156Z,16.73
2022-09-03T07:00:51.274Z,16.71
2022-09-03T07:03:23.945Z,16.84
2022-09-03T07:06:01.005Z,16.84
2022-09-03T07:08:34.385Z,16.91
2022-09-03T07:11:10.464Z,16.99
2022-09-03T07:13:45.493Z,16.97
2022-09-03T07:16:17.929Z,17.19
2022-09-03T07:18:50.636Z,17.26
2022-09-03T07:21:24.400Z,17.34
2022-09-03T07:23:57.872Z,17.36
2022-09-03T07:26:32.366Z,17.39
2022-09-03T07:29:04.817Z,17.49
2022-09-03T07:31:39.192Z,17.61
2022-09-03T07:34:13.210Z,17.62
2022-09-03T07:36:48.715Z,17.79
2022-09-03T07:39:21.481Z,17.84
2022-09-03T07:41:55.088Z,17.89
2022-09-03T07:44:28.557Z,17.81
2022-09-03T07:47:00.843Z,18.01
2022-09-03T07:49:32.987Z,18.08
2022-09-03T07:52:05.853Z,18.13
2022-09-03T07:54:44.912Z,18.18
2022-09-03T07:57:17.165Z,18.26
2022-09-03T07:59:49.590Z,18.35
2022-09-03T08:02:23.512Z,18.39
2022-09-03T08:04:55.527Z,18.49
2022-09-03T08:07:27.783Z,18.55
2022-09-03T08:09:59.895Z,18.61
2022-09-03T08:12:32.890Z,18.73
2022-09-03T08:15:05.847Z,18.80
2022-09-03T08:17:37.941Z,18.88
2022-09-03T08:20:11.516Z,18.94
2022-09-03T08:22:43.944Z,18.96
2022-09-03T08:25:16.229Z,19.02
2022-09-03T08:27:48.249Z,19.05
2022-09-03T08:30:21.627Z,19.16
2022-09-03T08:32:53.988Z,19.23
2022-09-03T08:35:26.131Z,19.26
2022-09-03T08:37:58.176Z,19.40
2022-09-03T08:40:31.290Z,19.46
2022-09-03T08:43:17.544Z,19.52
2022-09-03T08:45:49.896Z,19.54
2022-09-03T08:48:26.117Z,19.71
2022-09-03T08:51:00.863Z,19.76
2022-09-03T08:53:40.725Z,19.85
2022-09-03T08:56:20.302Z,19.92
2022-09-03T08:58:52.592Z,20.00
2022-09-03T09:01:38.357Z,20.09
2022-09-03T09:04:24.127Z,20.16
2022-09-03T09:07:01.523Z,20.28
2022-09-03T09:09:50.070Z,20.27
2022-09-03T09:12:42.690Z,20.45
2022-09-03T09:15:28.145Z,20.58
2022-09-03T09:18:14.288Z,20.65
2022-09-03T09:20:52.454Z,20.70
2022-09-03T09:23:29.514Z,20.77
2022-09-03T09:26:07.594Z,20.87
2022-09-03T09:28:41.235Z,21.00
2022-09-03T09:31:18.820Z,21.07
2022-09-03T09:33:52.607Z,21.15
2022-09-03T09:36:26.301Z,21.25
2022-09-03T09:39:09.291Z,21.32
2022-09-03T09:41:41.901Z,21.42
2022-09-03T09:44:22.000Z,21.48
2022-09-03T09:47:03.836Z,21.54
2022-09-03T09:49:39.417Z,21.68
2022-09-03T09:52:14.542Z,21.76
2022-09-03T09:54:47.911Z,21.75
2022-09-03T09:57:23.630Z,21.95
2022-09-03T10:00:10.866Z,22.00
2022-09-03T10:02:51.674Z,22.08
2022-09-03T10:05:26.608Z,22.14
2022-09-03T10:07:58.344Z,22.21
2022-09-03T10:10:35.079Z,22.28
2022-09-03T10:13:12.628Z,22.34
2022-09-03T10:15:51.313Z,22.46
2022-09-03T10:18:36.294Z,22.57
2022-09-03T10:21:11.317Z,22.66
2022-09-03T10:24:06.216Z,22.65
2022-09-03T10:26:39.710Z,22.47
2022-09-03T10:29:11.862Z,22.21
2022-09-03T10:32:04.953Z,22.35
2022-09-03T10:34:45.254Z,22.28
2022-09-03T10:37:25.690Z,22.40
2022-09-03T10:40:13.306Z,22.60
2022-09-03T10:42:54.863Z,22.65
2022-09-03T10:45:39.540Z,22.85
2022-09-03T10:48:42.643Z,23.04
2022-09-03T10:51:20.850Z,23.16
2022-09-03T10:54:20.993Z,23.00
2022-09-03T10:57:03.544Z,23.18
2022-09-03T10:59:48.205Z,23.30
2022-09-03T11:02:32.022Z,23.25
2022-09-03T11:05:07.722Z,23.18
2022-09-03T11:07:45.099Z,23.29
2022-09-03T11:10:25.021Z,23.41
2022-09-03T11:13:09.297Z,23.34
2022-09-03T11:15:46.706Z,23.66
2022-09-03T11:18:23.657Z,23.70
2022-09-03T11:20:59.496Z,23.80
2022-09-03T11:23:36.373Z,23.68
2022-09-03T11:26:12.975Z,23.41
2022-09-03T11:28:53.823Z,23.43
2022-09-03T11:31:40.239Z,23.40
2022-09-03T11:34:23.244Z,23.49
2022-09-03T11:37:08.369Z,23.70
2022-09-03T11:39:42.605Z,23.77
2022-09-03T11:42:27.997Z,23.67
2022-09-03T11:45:21.463Z,23.71
2022-09-03T11:47:55.254Z,23.91
2022-09-03T11:50:29.574Z,23.95
2022-09-03T11:53:25.494Z,24.13
2022-09-03T11:56:02.239Z,24.15
2022-09-03T11:58:37.771Z,24.17
2022-09-03T12:01:16.103Z,24.24
2022-09-03T12:03:52.585Z,24.30
2022-09-03T12:06:40.098Z,24.32
2022-09-03T12:09:42.290Z,24.39
2022-09-03T12:12:39.766Z,24.37
2022-09-03T12:15:23.612Z,24.44
2022-09-03T12:18:11.636Z,24.53
2022-09-03T12:20:44.749Z,24.60
2022-09-03T12:23:28.357Z,24.66
2022-09-03T12:26:05.214Z,24.75
2022-09-03T12:28:44.062Z,24.84
2022-09-03T12:31:24.809Z,24.88
2022-09-03T12:34:00.342Z,24.95
2022-09-03T12:36:41.465Z,25.02
2022-09-03T12:39:14.545Z,25.11
2022-09-03T12:42:01.453Z,25.20
2022-09-03T12:44:41.645Z,25.28
2022-09-03T12:47:35.571Z,25.38
2022-09-03T12:50:12.505Z,25.44
2022-09-03T12:52:49.479Z,25.45
2022-09-03T12:55:31.176Z,25.49
2022-09-03T12:58:13.840Z,25.48
2022-09-03T13:00:51.785Z,25.43
2022-09-03T13:03:29.824Z,25.31
2022-09-03T13:06:08.181Z,25.32
2022-09-03T13:08:47.189Z,25.23
2022-09-03T13:11:24.632Z,25.29
2022-09-03T13:14:02.129Z,25.33
2022-09-03T13:17:07.187Z,25.37
2022-09-03T13:19:50.398Z,25.44
2022-09-03T13:22:37.044Z,25.43
2022-09-03T13:25:27.498Z,25.41
2022-09-03T13:28:08.495Z,25.53
2022-09-03T13:30:50.589Z,25.55
2022-09-03T13:33:26.519Z,25.55
2022-09-03T13:36:11.164Z,25.55
2022-09-03T13:38:50.364Z,25.58
2022-09-03T13:41:36.431Z,25.65
2022-09-03T13:44:15.983Z,25.66
2022-09-03T13:46:53.706Z,25.69
2022-09-03T13:49:53.554Z,25.68
2022-09-03T13:52:32.813Z,25.86
2022-09-03T13:55:12.919Z,26.06
2022-09-03T13:57:52.104Z,26.12
2022-09-03T14:00:32.727Z,26.00
2022-09-03T14:03:16.717Z,26.28
2022-09-03T14:06:04.263Z,26.53
2022-09-03T14:08:54.313Z,26.81
2022-09-03T14:11:36.309Z,26.54
2022-09-03T14:14:21.146Z,26.39
2022-09-03T14:17:01.651Z,26.46
2022-09-03T14:19:44.644Z,27.04
2022-09-03T14:22:22.648Z,26.79
2022-09-03T14:24:59.457Z,26.36
2022-09-03T14:27:35.004Z,26.08
2022-09-03T14:30:19.189Z,26.16
2022-09-03T14:33:00.292Z,26.06
2022-09-03T14:35:45.042Z,25.92
2022-09-03T14:38:40.899Z,25.60
2022-09-03T14:41:34.086Z,25.28
2022-09-03T14:44:24.080Z,25.13
2022-09-03T14:47:19.337Z,25.01
2022-09-03T14:50:04.377Z,25.04
2022-09-03T14:53:01.029Z,24.90
2022-09-03T14:55:51.406Z,24.65
2022-09-03T14:58:36.951Z,24.52
2022-09-03T15:01:15.366Z,24.43
2022-09-03T15:04:15.460Z,24.38
2022-09-03T15:07:07.014Z,24.30
2022-09-03T15:09:46.324Z,24.20
2022-09-03T15:12:26.501Z,24.11
2022-09-03T15:15:02.546Z,24.04
2022-09-03T15:17:47.339Z,23.95
2022-09-03T15:20:35.711Z,23.93
2022-09-03T15:23:24.747Z,23.85
2022-09-03T15:26:34.143Z,23.79
2022-09-03T15:29:28.092Z,23.73
2022-09-03T15:32:08.173Z,23.72
2022-09-03T15:34:55.921Z,23.65
2022-09-03T15:37:33.865Z,23.59
2022-09-03T15:40:11.738Z,23.55
2022-09-03T15:42:48.013Z,23.48
2022-09-03T15:45:29.813Z,23.43
2022-09-03T15:48:14.828Z,23.38
2022-09-03T15:50:58.733Z,23.25
2022-09-03T15:53:37.729Z,23.28
2022-09-03T15:56:17.303Z,23.22
2022-09-03T15:58:57.395Z,23.16
2022-09-03T16:01:47.593Z,23.12
2022-09-03T16:04:50.618Z,23.08
2022-09-03T16:07:28.492Z,22.95
2022-09-03T16:10:28.248Z,22.95
2022-09-03T16:13:06.808Z,22.86
2022-09-03T16:15:44.475Z,22.90
2022-09-03T16:18:26.481Z,22.88
2022-09-03T16:21:02.699Z,22.83
2022-09-03T16:23:43.456Z,22.80
2022-09-03T16:26:22.580Z,22.73
2022-09-03T16:28:58.738Z,22.67
2022-09-03T16:31:43.207Z,22.60
2022-09-03T16:34:22.796Z,22.55
2022-09-03T16:37:04.669Z,22.48
2022-09-03T16:39:49.776Z,22.41
2022-09-03T16:42:29.251Z,22.35
2022-09-03T16:45:14.650Z,22.33
2022-09-03T16:47:59.491Z,22.24
2022-09-03T16:50:46.221Z,22.23
2022-09-03T16:53:25.206Z,22.19
2022-09-03T16:56:12.536Z,22.11
2022-09-03T16:58:57.901Z,22.12
2022-09-03T17:01:40.292Z,22.09
2022-09-03T17:04:34.403Z,22.06
2022-09-03T17:07:31.276Z,21.96
2022-09-03T17:10:12.607Z,21.98
2022-09-03T17:12:53.414Z,21.93
2022-09-03T17:15:49.141Z,21.87
2022-09-03T17:18:32.692Z,21.80
2022-09-03T17:22:35.449Z,21.80
2022-09-03T17:25:17.198Z,21.58
2022-09-03T17:27:57.223Z,21.56
2022-09-03T17:30:40.778Z,21.47
2022-09-03T17:33:34.884Z,21.42
2022-09-03T17:36:13.614Z,21.37
2022-09-03T17:39:22.513Z,21.33
2022-09-03T17:41:56.663Z,21.30
2022-09-03T17:44:45.238Z,21.25
2022-09-03T17:47:40.523Z,21.11
2022-09-03T17:50:19.534Z,21.14
2022-09-03T17:52:55.675Z,21.08
2022-09-03T17:55:36.374Z,21.08
2022-09-03T17:58:20.667Z,20.99
2022-09-03T18:01:00.390Z,20.94
2022-09-03T18:03:37.385Z,20.84
2022-09-03T18:06:19.846Z,20.75
2022-09-03T18:08:58.859Z,20.65
2022-09-03T18:11:36.780Z,20.66
2022-09-03T18:14:18.554Z,20.59
2022-09-03T18:17:03.215Z,20.52
2022-09-03T18:19:56.849Z,20.46
2022-09-03T18:22:54.735Z,20.45
2022-09-03T18:25:47.370Z,20.42
2022-09-03T18:28:44.092Z,20.38
2022-09-03T18:31:36.572Z,20.21
2022-09-03T18:34:26.828Z,20.34
2022-09-03T18:37:18.987Z,20.31
2022-09-03T18:40:09.009Z,20.28
2022-09-03T18:43:10.247Z,20.29
2022-09-03T18:46:50.836Z,20.30
2022-09-03T18:49:27.972Z,20.27
2022-09-03T18:52:27.472Z,20.29
2022-09-03T18:55:26.558Z,20.27
2022-09-03T18:58:28.580Z,20.24
2022-09-03T19:01:26.488Z,20.22
2022-09-03T19:04:25.598Z,20.21
2022-09-03T19:07:23.321Z,20.22
2022-09-03T19:10:18.840Z,20.22
2022-09-03T19:13:20.833Z,20.11
2022-09-03T19:16:18.842Z,20.10
2022-09-03T19:19:32.576Z,20.15
2022-09-03T19:22:28.678Z,20.09
2022-09-03T19:25:29.313Z,20.06
2022-09-03T19:28:30.711Z,20.14
2022-09-03T19:31:42.680Z,20.18
2022-09-03T19:34:48.858Z,20.08
2022-09-03T19:37:41.814Z,20.10
2022-09-03T19:40:46.322Z,20.07
2022-09-03T19:43:44.062Z,20.13
2022-09-03T19:46:44.743Z,20.12
2022-09-03T19:49:45.018Z,20.08
2022-09-03T19:52:46.439Z,20.02
2022-09-03T19:55:45.135Z,20.02
2022-09-03T19:58:43.567Z,20.05
2022-09-03T20:01:35.211Z,19.98
2022-09-03T20:04:32.037Z,19.97
2022-09-03T20:07:26.001Z,20.00
2022-09-03T20:10:20.885Z,19.92
2022-09-03T20:13:02.652Z,19.52
2022-09-03T20:15:48.586Z,19.74
2022-09-03T20:18:33.643Z,19.74
2022-09-03T20:21:16.080Z,19.73
2022-09-03T20:23:58.560Z,19.66
2022-09-03T20:26:48.976Z,19.68
2022-09-03T20:29:46.873Z,19.67
2022-09-03T20:32:33.692Z,19.64
2022-09-03T20:35:17.308Z,19.61
2022-09-03T20:38:00.352Z,19.36
2022-09-03T20:40:46.957Z,19.42
2022-09-03T20:43:36.846Z,19.36
2022-09-03T20:46:30.496Z,19.43
2022-09-03T20:49:13.263Z,19.46
2022-09-03T20:51:53.315Z,19.44
2022-09-03T20:54:32.661Z,19.44
2022-09-03T20:57:19.777Z,19.38
2022-09-03T21:00:06.886Z,19.32
2022-09-03T21:03:06.618Z,19.27
2022-09-03T21:05:44.925Z,19.23
2022-09-03T21:08:31.116Z,19.19
2022-09-03T21:11:08.798Z,19.10
2022-09-03T21:13:48.627Z,19.15
2022-09-03T21:16:30.516Z,19.12
2022-09-03T21:19:11.722Z,19.02
2022-09-03T21:21:56.340Z,19.04
2022-09-03T21:24:33.788Z,18.90
2022-09-03T21:27:09.750Z,18.94
2022-09-03T21:29:46.398Z,18.92
2022-09-03T21:32:23.055Z,19.02
2022-09-03T21:35:10.018Z,19.01
2022-09-03T21:37:51.070Z,19.00
2022-09-03T21:40:26.944Z,19.06
2022-09-03T21:43:10.937Z,19.04
2022-09-03T21:45:48.046Z,19.01
2022-09-03T21:48:23.726Z,19.08
2022-09-03T21:50:59.388Z,18.99
2022-09-03T21:53:38.352Z,19.01
2022-09-03T21:56:26.577Z,19.02
2022-09-03T21:59:12.416Z,19.04
2022-09-03T22:01:59.052Z,19.00
2022-09-03T22:04:31.980Z,19.00
2022-09-03T22:07:13.801Z,19.02
2022-09-03T22:09:54.380Z,19.05
2022-09-03T22:12:33.733Z,19.04
2022-09-03T22:15:13.284Z,19.04
2022-09-03T22:17:55.990Z,19.02
2022-09-03T22:20:28.995Z,19.03
2022-09-03T22:23:07.450Z,18.91
2022-09-03T22:25:50.053Z,19.00
2022-09-03T22:28:29.085Z,19.03
2022-09-03T22:31:07.356Z,19.03
2022-09-03T22:33:48.190Z,18.96
2022-09-03T22:36:27.441Z,18.92
2022-09-03T22:39:23.010Z,18.91
2022-09-03T22:42:02.200Z,18.94
2022-09-03T22:44:56.766Z,18.92
2022-09-03T22:47:39.365Z,18.95
2022-09-03T22:50:22.319Z,18.93
2022-09-03T22:53:02.725Z,18.90
2022-09-03T22:55:37.486Z,18.88
2022-09-03T22:58:14.827Z,18.84
2022-09-03T23:00:53.793Z,18.84
2022-09-03T23:03:42.182Z,18.85
2022-09-03T23:06:22.635Z,18.87
2022-09-03T23:09:00.136Z,18.85
2022-09-03T23:11:38.914Z,18.86
2022-09-03T23:14:14.269Z,18.84
2022-09-03T23:16:52.785Z,18.74
2022-09-03T23:19:36.625Z,18.81
2022-09-03T23:22:13.380Z,18.80
2022-09-03T23:24:50.431Z,18.81
2022-09-03T23:27:27.217Z,18.81
2022-09-03T23:30:03.069Z,18.76
2022-09-03T23:32:35.963Z,18.76
2022-09-03T23:35:17.888Z,18.76
2022-09-03T23:38:03.849Z,18.78
2022-09-03T23:40:47.010Z,18.76
2022-09-03T23:43:43.703Z,18.70
2022-09-03T23:46:20.809Z,18.68
2022-09-03T23:49:08.941Z,18.67
2022-09-03T23:51:54.308Z,18.67
2022-09-03T23:54:37.047Z,18.65
2022-09-03T23:57:16.271Z,18.64
